sensor_id;sensor_type;location;lat;lon;timestamp;temperature;humidity
49379;DHT22;35254;47.990;-1.608;2022-11-20T00:00:02;20.60;50.80
49379;DHT22;35254;47.990;-1.608;2022-11-20T00:02:28;20.60;50.60
49379;DHT22;35254;47.990;-1.608;2022-11-20T00:04:53;20.60;50.70
49379;DHT22;35254;47.990;-1.608;2022-11-20T00:07:19;20.60;50.60
49379;DHT22;35254;47.990;-1.608;2022-11-20T00:09:45;20.60;50.70
49379;DHT22;35254;47.990;-1.608;2022-11-20T00:12:10;20.60;50.60
49379;DHT22;35254;47.990;-1.608;2022-11-20T00:14:36;20.60;50.30
49379;DHT22;35254;47.990;-1.608;2022-11-20T00:17:01;20.60;50.60
49379;DHT22;35254;47.990;-1.608;2022-11-20T00:19:27;20.60;50.60
49379;DHT22;35254;47.990;-1.608;2022-11-20T00:21:53;20.60;50.50
49379;DHT22;35254;47.990;-1.608;2022-11-20T00:24:20;20.50;50.60
49379;DHT22;35254;47.990;-1.608;2022-11-20T00:26:46;20.50;50.40
49379;DHT22;35254;47.990;-1.608;2022-11-20T00:29:12;20.60;50.40
49379;DHT22;35254;47.990;-1.608;2022-11-20T00:31:37;20.50;50.70
49379;DHT22;35254;47.990;-1.608;2022-11-20T00:34:03;20.50;50.60
49379;DHT22;35254;47.990;-1.608;2022-11-20T00:36:32;20.50;50.30
49379;DHT22;35254;47.990;-1.608;2022-11-20T00:38:59;20.60;50.50
49379;DHT22;35254;47.990;-1.608;2022-11-20T00:41:27;20.50;50.40
49379;DHT22;35254;47.990;-1.608;2022-11-20T00:43:54;20.50;50.30
49379;DHT22;35254;47.990;-1.608;2022-11-20T00:46:21;20.50;50.40
49379;DHT22;35254;47.990;-1.608;2022-11-20T00:48:47;20.50;50.40
49379;DHT22;35254;47.990;-1.608;2022-11-20T00:51:16;20.50;50.50
49379;DHT22;35254;47.990;-1.608;2022-11-20T00:53:42;20.50;50.30
49379;DHT22;35254;47.990;-1.608;2022-11-20T00:56:12;20.50;50.50
49379;DHT22;35254;47.990;-1.608;2022-11-20T00:58:41;20.50;50.30
49379;DHT22;35254;47.990;-1.608;2022-11-20T01:01:18;20.40;50.50
49379;DHT22;35254;47.990;-1.608;2022-11-20T01:03:46;20.40;50.20
49379;DHT22;35254;47.990;-1.608;2022-11-20T01:06:20;20.40;50.20
49379;DHT22;35254;47.990;-1.608;2022-11-20T01:08:47;20.40;50.20
49379;DHT22;35254;47.990;-1.608;2022-11-20T01:11:17;20.40;50.20
49379;DHT22;35254;47.990;-1.608;2022-11-20T01:13:43;20.50;50.40
49379;DHT22;35254;47.990;-1.608;2022-11-20T01:16:20;20.40;50.10
49379;DHT22;35254;47.990;-1.608;2022-11-20T01:18:48;20.40;50.10
49379;DHT22;35254;47.990;-1.608;2022-11-20T01:21:29;20.40;50.10
49379;DHT22;35254;47.990;-1.608;2022-11-20T01:23:55;20.40;50.00
49379;DHT22;35254;47.990;-1.608;2022-11-20T01:26:29;20.40;50.60
49379;DHT22;35254;47.990;-1.608;2022-11-20T01:28:57;20.40;50.40
49379;DHT22;35254;47.990;-1.608;2022-11-20T01:31:31;20.30;50.40
49379;DHT22;35254;47.990;-1.608;2022-11-20T01:33:59;20.30;50.30
49379;DHT22;35254;47.990;-1.608;2022-11-20T01:36:27;20.30;50.30
49379;DHT22;35254;47.990;-1.608;2022-11-20T01:38:54;20.30;50.60
49379;DHT22;35254;47.990;-1.608;2022-11-20T01:41:21;20.30;50.40
49379;DHT22;35254;47.990;-1.608;2022-11-20T01:44:06;20.30;50.20
49379;DHT22;35254;47.990;-1.608;2022-11-20T01:46:33;20.30;50.30
49379;DHT22;35254;47.990;-1.608;2022-11-20T01:49:33;20.30;50.40
49379;DHT22;35254;47.990;-1.608;2022-11-20T01:52:03;20.20;50.40
49379;DHT22;35254;47.990;-1.608;2022-11-20T01:54:35;20.30;50.40
49379;DHT22;35254;47.990;-1.608;2022-11-20T01:57:02;20.30;50.60
49379;DHT22;35254;47.990;-1.608;2022-11-20T01:59:29;20.30;50.50
49379;DHT22;35254;47.990;-1.608;2022-11-20T02:01:55;20.30;50.50
49379;DHT22;35254;47.990;-1.608;2022-11-20T02:04:21;20.30;50.60
49379;DHT22;35254;47.990;-1.608;2022-11-20T02:07:14;20.30;50.90
49379;DHT22;35254;47.990;-1.608;2022-11-20T02:09:40;20.20;50.50
49379;DHT22;35254;47.990;-1.608;2022-11-20T02:12:05;20.20;50.50
49379;DHT22;35254;47.990;-1.608;2022-11-20T02:14:51;20.20;50.60
49379;DHT22;35254;47.990;-1.608;2022-11-20T02:17:17;20.20;50.50
49379;DHT22;35254;47.990;-1.608;2022-11-20T02:19:42;20.20;50.70
49379;DHT22;35254;47.990;-1.608;2022-11-20T02:22:15;20.20;50.50
49379;DHT22;35254;47.990;-1.608;2022-11-20T02:24:44;20.20;50.60
49379;DHT22;35254;47.990;-1.608;2022-11-20T02:27:12;20.20;50.40
49379;DHT22;35254;47.990;-1.608;2022-11-20T02:32:37;20.20;50.40
49379;DHT22;35254;47.990;-1.608;2022-11-20T02:35:38;20.20;50.40
49379;DHT22;35254;47.990;-1.608;2022-11-20T02:37:59;20.20;50.50
49379;DHT22;35254;47.990;-1.608;2022-11-20T02:40:26;20.20;50.00
49379;DHT22;35254;47.990;-1.608;2022-11-20T02:42:53;20.20;50.20
49379;DHT22;35254;47.990;-1.608;2022-11-20T02:45:19;20.20;50.40
49379;DHT22;35254;47.990;-1.608;2022-11-20T02:47:44;20.20;49.90
49379;DHT22;35254;47.990;-1.608;2022-11-20T02:50:10;20.20;50.40
49379;DHT22;35254;47.990;-1.608;2022-11-20T02:52:36;20.20;50.40
49379;DHT22;35254;47.990;-1.608;2022-11-20T02:55:02;20.20;50.80
49379;DHT22;35254;47.990;-1.608;2022-11-20T02:57:27;20.40;51.50
49379;DHT22;35254;47.990;-1.608;2022-11-20T02:59:53;20.40;50.30
49379;DHT22;35254;47.990;-1.608;2022-11-20T03:02:19;20.30;50.10
49379;DHT22;35254;47.990;-1.608;2022-11-20T03:04:44;20.30;50.00
49379;DHT22;35254;47.990;-1.608;2022-11-20T03:07:10;20.30;50.30
49379;DHT22;35254;47.990;-1.608;2022-11-20T03:09:35;20.20;50.40
49379;DHT22;35254;47.990;-1.608;2022-11-20T03:12:01;20.30;50.40
49379;DHT22;35254;47.990;-1.608;2022-11-20T03:14:27;20.20;50.50
49379;DHT22;35254;47.990;-1.608;2022-11-20T03:16:52;20.20;50.60
49379;DHT22;35254;47.990;-1.608;2022-11-20T03:19:18;20.30;50.60
49379;DHT22;35254;47.990;-1.608;2022-11-20T03:21:43;20.20;50.40
49379;DHT22;35254;47.990;-1.608;2022-11-20T03:24:09;20.20;50.40
49379;DHT22;35254;47.990;-1.608;2022-11-20T03:26:35;20.20;50.40
49379;DHT22;35254;47.990;-1.608;2022-11-20T03:29:03;20.20;50.40
49379;DHT22;35254;47.990;-1.608;2022-11-20T03:31:37;20.20;50.30
49379;DHT22;35254;47.990;-1.608;2022-11-20T03:34:05;20.20;50.20
49379;DHT22;35254;47.990;-1.608;2022-11-20T03:36:32;20.20;50.20
49379;DHT22;35254;47.990;-1.608;2022-11-20T03:38:58;20.20;50.20
49379;DHT22;35254;47.990;-1.608;2022-11-20T03:41:26;20.30;50.20
49379;DHT22;35254;47.990;-1.608;2022-11-20T03:43:54;20.30;50.00
49379;DHT22;35254;47.990;-1.608;2022-11-20T03:46:20;20.20;49.90
49379;DHT22;35254;47.990;-1.608;2022-11-20T03:48:46;20.20;49.70
49379;DHT22;35254;47.990;-1.608;2022-11-20T03:51:14;20.20;49.90
49379;DHT22;35254;47.990;-1.608;2022-11-20T03:53:42;20.20;49.70
49379;DHT22;35254;47.990;-1.608;2022-11-20T03:56:08;20.20;49.70
49379;DHT22;35254;47.990;-1.608;2022-11-20T03:58:35;20.20;49.70
49379;DHT22;35254;47.990;-1.608;2022-11-20T04:01:08;20.20;49.80
49379;DHT22;35254;47.990;-1.608;2022-11-20T04:03:34;20.20;49.80
49379;DHT22;35254;47.990;-1.608;2022-11-20T04:08:30;20.20;49.60
49379;DHT22;35254;47.990;-1.608;2022-11-20T04:10:56;20.20;49.90
49379;DHT22;35254;47.990;-1.608;2022-11-20T04:13:22;20.20;49.70
49379;DHT22;35254;47.990;-1.608;2022-11-20T04:15:47;20.20;49.60
49379;DHT22;35254;47.990;-1.608;2022-11-20T04:18:13;20.20;49.70
49379;DHT22;35254;47.990;-1.608;2022-11-20T04:20:38;20.20;49.80
49379;DHT22;35254;47.990;-1.608;2022-11-20T04:23:04;20.10;50.10
49379;DHT22;35254;47.990;-1.608;2022-11-20T04:25:30;20.20;50.00
49379;DHT22;35254;47.990;-1.608;2022-11-20T04:27:55;20.10;49.90
49379;DHT22;35254;47.990;-1.608;2022-11-20T04:30:21;20.10;49.80
49379;DHT22;35254;47.990;-1.608;2022-11-20T04:32:46;20.10;49.90
49379;DHT22;35254;47.990;-1.608;2022-11-20T04:35:12;20.10;49.70
49379;DHT22;35254;47.990;-1.608;2022-11-20T04:37:37;20.10;49.90
49379;DHT22;35254;47.990;-1.608;2022-11-20T04:40:03;20.10;49.90
49379;DHT22;35254;47.990;-1.608;2022-11-20T04:42:29;20.10;49.90
49379;DHT22;35254;47.990;-1.608;2022-11-20T04:44:55;20.10;49.70
49379;DHT22;35254;47.990;-1.608;2022-11-20T04:47:21;20.10;49.90
49379;DHT22;35254;47.990;-1.608;2022-11-20T04:49:47;20.10;49.80
49379;DHT22;35254;47.990;-1.608;2022-11-20T04:52:13;20.10;49.60
49379;DHT22;35254;47.990;-1.608;2022-11-20T04:54:39;20.10;49.80
49379;DHT22;35254;47.990;-1.608;2022-11-20T04:57:04;20.10;49.80
49379;DHT22;35254;47.990;-1.608;2022-11-20T04:59:30;20.10;49.80
49379;DHT22;35254;47.990;-1.608;2022-11-20T05:01:56;20.10;49.70
49379;DHT22;35254;47.990;-1.608;2022-11-20T05:04:21;20.10;49.80
49379;DHT22;35254;47.990;-1.608;2022-11-20T05:06:47;20.10;49.80
49379;DHT22;35254;47.990;-1.608;2022-11-20T05:09:13;20.10;49.70
49379;DHT22;35254;47.990;-1.608;2022-11-20T05:11:38;20.10;49.90
49379;DHT22;35254;47.990;-1.608;2022-11-20T05:14:04;20.10;49.80
49379;DHT22;35254;47.990;-1.608;2022-11-20T05:16:29;20.00;49.70
49379;DHT22;35254;47.990;-1.608;2022-11-20T05:18:56;20.10;49.70
49379;DHT22;35254;47.990;-1.608;2022-11-20T05:21:22;20.10;49.80
49379;DHT22;35254;47.990;-1.608;2022-11-20T05:23:48;20.00;49.80
49379;DHT22;35254;47.990;-1.608;2022-11-20T05:26:16;20.00;49.80
49379;DHT22;35254;47.990;-1.608;2022-11-20T05:28:43;20.00;49.80
49379;DHT22;35254;47.990;-1.608;2022-11-20T05:31:11;20.00;49.80
49379;DHT22;35254;47.990;-1.608;2022-11-20T05:33:39;20.00;49.80
49379;DHT22;35254;47.990;-1.608;2022-11-20T05:36:06;20.00;49.80
49379;DHT22;35254;47.990;-1.608;2022-11-20T05:38:32;20.00;49.60
49379;DHT22;35254;47.990;-1.608;2022-11-20T05:41:06;20.00;49.70
49379;DHT22;35254;47.990;-1.608;2022-11-20T05:43:35;20.00;49.80
49379;DHT22;35254;47.990;-1.608;2022-11-20T05:46:02;20.00;49.80
49379;DHT22;35254;47.990;-1.608;2022-11-20T05:48:28;20.00;49.70
49379;DHT22;35254;47.990;-1.608;2022-11-20T05:50:56;20.00;49.70
49379;DHT22;35254;47.990;-1.608;2022-11-20T05:53:21;20.00;49.80
49379;DHT22;35254;47.990;-1.608;2022-11-20T05:56:04;20.00;49.70
49379;DHT22;35254;47.990;-1.608;2022-11-20T05:58:31;20.00;49.60
49379;DHT22;35254;47.990;-1.608;2022-11-20T06:03:41;20.00;49.80
49379;DHT22;35254;47.990;-1.608;2022-11-20T06:06:17;20.00;49.80
49379;DHT22;35254;47.990;-1.608;2022-11-20T06:08:44;20.00;49.80
49379;DHT22;35254;47.990;-1.608;2022-11-20T06:11:10;20.00;49.80
49379;DHT22;35254;47.990;-1.608;2022-11-20T06:13:36;20.00;49.90
49379;DHT22;35254;47.990;-1.608;2022-11-20T06:16:02;20.00;49.80
49379;DHT22;35254;47.990;-1.608;2022-11-20T06:18:29;20.00;49.80
49379;DHT22;35254;47.990;-1.608;2022-11-20T06:21:30;20.00;49.80
49379;DHT22;35254;47.990;-1.608;2022-11-20T06:23:56;20.00;49.90
49379;DHT22;35254;47.990;-1.608;2022-11-20T06:26:24;20.00;49.90
49379;DHT22;35254;47.990;-1.608;2022-11-20T06:28:51;19.90;49.90
49379;DHT22;35254;47.990;-1.608;2022-11-20T06:31:19;19.90;50.00
49379;DHT22;35254;47.990;-1.608;2022-11-20T06:33:46;19.90;50.00
49379;DHT22;35254;47.990;-1.608;2022-11-20T06:36:13;20.00;49.90
49379;DHT22;35254;47.990;-1.608;2022-11-20T06:38:39;20.00;50.10
49379;DHT22;35254;47.990;-1.608;2022-11-20T06:41:07;20.00;50.00
49379;DHT22;35254;47.990;-1.608;2022-11-20T06:43:33;20.00;50.00
49379;DHT22;35254;47.990;-1.608;2022-11-20T06:45:59;20.00;50.00
49379;DHT22;35254;47.990;-1.608;2022-11-20T06:48:26;20.00;50.00
49379;DHT22;35254;47.990;-1.608;2022-11-20T06:50:52;20.00;50.00
49379;DHT22;35254;47.990;-1.608;2022-11-20T06:53:17;20.00;50.00
49379;DHT22;35254;47.990;-1.608;2022-11-20T06:55:46;19.90;50.00
49379;DHT22;35254;47.990;-1.608;2022-11-20T06:58:14;19.90;50.10
49379;DHT22;35254;47.990;-1.608;2022-11-20T07:00:40;19.90;50.10
49379;DHT22;35254;47.990;-1.608;2022-11-20T07:03:07;19.90;50.10
49379;DHT22;35254;47.990;-1.608;2022-11-20T07:05:33;19.90;50.20
49379;DHT22;35254;47.990;-1.608;2022-11-20T07:07:59;19.90;50.20
49379;DHT22;35254;47.990;-1.608;2022-11-20T07:10:25;19.90;50.20
49379;DHT22;35254;47.990;-1.608;2022-11-20T07:12:52;19.90;50.20
49379;DHT22;35254;47.990;-1.608;2022-11-20T07:15:19;19.90;50.20
49379;DHT22;35254;47.990;-1.608;2022-11-20T07:17:45;19.90;50.20
49379;DHT22;35254;47.990;-1.608;2022-11-20T07:20:11;19.80;50.20
49379;DHT22;35254;47.990;-1.608;2022-11-20T07:22:37;19.90;50.20
49379;DHT22;35254;47.990;-1.608;2022-11-20T07:25:03;19.90;50.20
49379;DHT22;35254;47.990;-1.608;2022-11-20T07:27:29;19.90;50.30
49379;DHT22;35254;47.990;-1.608;2022-11-20T07:29:55;19.80;50.20
49379;DHT22;35254;47.990;-1.608;2022-11-20T07:32:21;19.80;50.20
49379;DHT22;35254;47.990;-1.608;2022-11-20T07:34:47;19.90;50.20
49379;DHT22;35254;47.990;-1.608;2022-11-20T07:37:13;19.80;50.20
49379;DHT22;35254;47.990;-1.608;2022-11-20T07:39:39;19.80;50.30
49379;DHT22;35254;47.990;-1.608;2022-11-20T07:42:06;19.90;50.20
49379;DHT22;35254;47.990;-1.608;2022-11-20T07:44:32;19.80;50.30
49379;DHT22;35254;47.990;-1.608;2022-11-20T07:46:58;19.80;50.30
49379;DHT22;35254;47.990;-1.608;2022-11-20T07:49:23;19.80;50.30
49379;DHT22;35254;47.990;-1.608;2022-11-20T07:51:52;19.80;50.40
49379;DHT22;35254;47.990;-1.608;2022-11-20T07:54:21;19.80;50.30
49379;DHT22;35254;47.990;-1.608;2022-11-20T07:56:47;19.80;50.30
49379;DHT22;35254;47.990;-1.608;2022-11-20T07:59:13;19.80;50.40
49379;DHT22;35254;47.990;-1.608;2022-11-20T08:01:39;19.80;50.40
49379;DHT22;35254;47.990;-1.608;2022-11-20T08:04:05;19.70;50.30
49379;DHT22;35254;47.990;-1.608;2022-11-20T08:06:31;19.70;50.40
49379;DHT22;35254;47.990;-1.608;2022-11-20T08:08:57;19.80;50.50
49379;DHT22;35254;47.990;-1.608;2022-11-20T08:11:23;19.80;50.30
49379;DHT22;35254;47.990;-1.608;2022-11-20T08:14:07;19.80;50.30
49379;DHT22;35254;47.990;-1.608;2022-11-20T08:16:43;19.70;50.50
49379;DHT22;35254;47.990;-1.608;2022-11-20T08:19:10;19.70;50.50
49379;DHT22;35254;47.990;-1.608;2022-11-20T08:21:35;19.70;50.40
49379;DHT22;35254;47.990;-1.608;2022-11-20T08:24:01;19.70;50.50
49379;DHT22;35254;47.990;-1.608;2022-11-20T08:26:27;19.70;50.50
49379;DHT22;35254;47.990;-1.608;2022-11-20T08:28:54;19.70;50.50
49379;DHT22;35254;47.990;-1.608;2022-11-20T08:31:21;19.70;50.60
49379;DHT22;35254;47.990;-1.608;2022-11-20T08:33:47;19.70;50.60
49379;DHT22;35254;47.990;-1.608;2022-11-20T08:36:12;19.70;50.50
49379;DHT22;35254;47.990;-1.608;2022-11-20T08:38:38;19.70;50.60
49379;DHT22;35254;47.990;-1.608;2022-11-20T08:41:05;19.70;50.60
49379;DHT22;35254;47.990;-1.608;2022-11-20T08:43:50;19.70;50.60
49379;DHT22;35254;47.990;-1.608;2022-11-20T08:46:16;19.70;50.60
49379;DHT22;35254;47.990;-1.608;2022-11-20T08:48:44;19.70;50.70
49379;DHT22;35254;47.990;-1.608;2022-11-20T08:51:10;19.70;50.60
49379;DHT22;35254;47.990;-1.608;2022-11-20T08:53:36;19.80;50.70
49379;DHT22;35254;47.990;-1.608;2022-11-20T08:56:02;19.70;50.70
49379;DHT22;35254;47.990;-1.608;2022-11-20T08:58:27;19.80;50.70
49379;DHT22;35254;47.990;-1.608;2022-11-20T09:00:53;19.80;50.80
49379;DHT22;35254;47.990;-1.608;2022-11-20T09:03:19;19.80;50.80
49379;DHT22;35254;47.990;-1.608;2022-11-20T09:05:45;19.80;51.00
49379;DHT22;35254;47.990;-1.608;2022-11-20T09:08:11;19.80;51.00
49379;DHT22;35254;47.990;-1.608;2022-11-20T09:10:36;19.80;50.90
49379;DHT22;35254;47.990;-1.608;2022-11-20T09:13:05;19.80;51.00
49379;DHT22;35254;47.990;-1.608;2022-11-20T09:15:31;19.80;50.80
49379;DHT22;35254;47.990;-1.608;2022-11-20T09:17:58;19.80;50.90
49379;DHT22;35254;47.990;-1.608;2022-11-20T09:20:25;19.80;50.80
49379;DHT22;35254;47.990;-1.608;2022-11-20T09:22:51;19.80;51.00
49379;DHT22;35254;47.990;-1.608;2022-11-20T09:25:17;19.90;51.10
49379;DHT22;35254;47.990;-1.608;2022-11-20T09:27:43;19.90;50.70
49379;DHT22;35254;47.990;-1.608;2022-11-20T09:30:12;20.00;51.00
49379;DHT22;35254;47.990;-1.608;2022-11-20T09:32:42;20.00;51.10
49379;DHT22;35254;47.990;-1.608;2022-11-20T09:35:08;19.90;51.10
49379;DHT22;35254;47.990;-1.608;2022-11-20T09:37:34;20.00;51.30
49379;DHT22;35254;47.990;-1.608;2022-11-20T09:40:00;20.00;51.20
49379;DHT22;35254;47.990;-1.608;2022-11-20T09:48:03;20.10;54.40
49379;DHT22;35254;47.990;-1.608;2022-11-20T09:56:19;20.20;52.50
49379;DHT22;35254;47.990;-1.608;2022-11-20T09:58:49;20.20;52.20
49379;DHT22;35254;47.990;-1.608;2022-11-20T10:01:18;20.20;52.10
49379;DHT22;35254;47.990;-1.608;2022-11-20T10:22:49;20.30;52.50
49379;DHT22;35254;47.990;-1.608;2022-11-20T10:25:20;20.30;53.30
49379;DHT22;35254;47.990;-1.608;2022-11-20T10:27:58;20.40;53.00
49379;DHT22;35254;47.990;-1.608;2022-11-20T10:30:25;20.40;52.90
49379;DHT22;35254;47.990;-1.608;2022-11-20T10:33:12;20.40;53.10
49379;DHT22;35254;47.990;-1.608;2022-11-20T10:35:43;20.40;52.90
49379;DHT22;35254;47.990;-1.608;2022-11-20T10:38:16;20.40;53.20
49379;DHT22;35254;47.990;-1.608;2022-11-20T10:40:54;20.40;53.40
49379;DHT22;35254;47.990;-1.608;2022-11-20T10:43:43;20.50;53.30
49379;DHT22;35254;47.990;-1.608;2022-11-20T10:46:15;20.40;53.30
49379;DHT22;35254;47.990;-1.608;2022-11-20T10:48:43;20.40;53.10
49379;DHT22;35254;47.990;-1.608;2022-11-20T11:00:02;20.50;53.60
49379;DHT22;35254;47.990;-1.608;2022-11-20T11:02:35;20.50;53.30
49379;DHT22;35254;47.990;-1.608;2022-11-20T11:07:53;20.60;53.00
49379;DHT22;35254;47.990;-1.608;2022-11-20T11:12:53;20.60;53.00
49379;DHT22;35254;47.990;-1.608;2022-11-20T11:15:30;20.60;52.90
49379;DHT22;35254;47.990;-1.608;2022-11-20T11:18:01;20.60;52.80
49379;DHT22;35254;47.990;-1.608;2022-11-20T11:20:27;20.60;53.20
49379;DHT22;35254;47.990;-1.608;2022-11-20T11:22:57;20.60;52.70
49379;DHT22;35254;47.990;-1.608;2022-11-20T11:25:32;20.70;52.60
49379;DHT22;35254;47.990;-1.608;2022-11-20T11:28:22;20.70;52.40
49379;DHT22;35254;47.990;-1.608;2022-11-20T11:30:50;20.70;52.50
49379;DHT22;35254;47.990;-1.608;2022-11-20T11:33:28;20.70;52.30
49379;DHT22;35254;47.990;-1.608;2022-11-20T11:35:55;20.80;52.40
49379;DHT22;35254;47.990;-1.608;2022-11-20T11:38:36;20.80;52.30
49379;DHT22;35254;47.990;-1.608;2022-11-20T11:41:04;20.70;53.20
49379;DHT22;35254;47.990;-1.608;2022-11-20T11:43:36;20.70;53.50
49379;DHT22;35254;47.990;-1.608;2022-11-20T11:52:04;20.80;54.00
49379;DHT22;35254;47.990;-1.608;2022-11-20T12:07:59;20.90;54.60
49379;DHT22;35254;47.990;-1.608;2022-11-20T12:10:48;20.90;55.40
49379;DHT22;35254;47.990;-1.608;2022-11-20T12:16:03;21.10;55.60
49379;DHT22;35254;47.990;-1.608;2022-11-20T12:18:29;21.10;54.60
49379;DHT22;35254;47.990;-1.608;2022-11-20T12:40:23;21.20;53.90
49379;DHT22;35254;47.990;-1.608;2022-11-20T12:43:05;21.20;53.70
49379;DHT22;35254;47.990;-1.608;2022-11-20T12:46:03;21.20;53.90
49379;DHT22;35254;47.990;-1.608;2022-11-20T12:51:34;21.10;53.60
49379;DHT22;35254;47.990;-1.608;2022-11-20T13:00:15;21.00;53.40
49379;DHT22;35254;47.990;-1.608;2022-11-20T13:03:23;21.00;53.70
49379;DHT22;35254;47.990;-1.608;2022-11-20T13:08:34;21.00;54.00
49379;DHT22;35254;47.990;-1.608;2022-11-20T13:14:10;21.00;54.20
49379;DHT22;35254;47.990;-1.608;2022-11-20T13:16:34;21.00;54.80
49379;DHT22;35254;47.990;-1.608;2022-11-20T13:19:04;21.10;56.10
49379;DHT22;35254;47.990;-1.608;2022-11-20T13:21:38;21.10;56.20
49379;DHT22;35254;47.990;-1.608;2022-11-20T13:26:45;21.10;57.40
49379;DHT22;35254;47.990;-1.608;2022-11-20T13:29:17;21.10;57.90
49379;DHT22;35254;47.990;-1.608;2022-11-20T13:31:45;21.10;58.50
49379;DHT22;35254;47.990;-1.608;2022-11-20T13:34:21;21.10;58.90
49379;DHT22;35254;47.990;-1.608;2022-11-20T13:36:49;21.10;59.00
49379;DHT22;35254;47.990;-1.608;2022-11-20T13:39:27;21.10;59.70
49379;DHT22;35254;47.990;-1.608;2022-11-20T13:41:58;21.10;59.60
49379;DHT22;35254;47.990;-1.608;2022-11-20T13:46:52;21.10;61.30
49379;DHT22;35254;47.990;-1.608;2022-11-20T13:49:33;21.20;62.70
49379;DHT22;35254;47.990;-1.608;2022-11-20T13:55:10;21.20;62.60
49379;DHT22;35254;47.990;-1.608;2022-11-20T14:00:30;21.20;63.80
49379;DHT22;35254;47.990;-1.608;2022-11-20T14:05:24;21.20;62.50
49379;DHT22;35254;47.990;-1.608;2022-11-20T14:07:52;21.20;62.80
49379;DHT22;35254;47.990;-1.608;2022-11-20T14:12:46;21.20;62.60
49379;DHT22;35254;47.990;-1.608;2022-11-20T14:15:26;21.20;62.30
49379;DHT22;35254;47.990;-1.608;2022-11-20T14:17:51;21.30;62.70
49379;DHT22;35254;47.990;-1.608;2022-11-20T14:20:17;21.40;61.70
49379;DHT22;35254;47.990;-1.608;2022-11-20T14:22:52;21.30;62.00
49379;DHT22;35254;47.990;-1.608;2022-11-20T14:27:52;21.40;61.60
49379;DHT22;35254;47.990;-1.608;2022-11-20T14:30:23;21.40;61.50
49379;DHT22;35254;47.990;-1.608;2022-11-20T14:32:50;21.40;61.00
49379;DHT22;35254;47.990;-1.608;2022-11-20T14:35:33;21.40;60.90
49379;DHT22;35254;47.990;-1.608;2022-11-20T14:38:01;21.40;60.30
49379;DHT22;35254;47.990;-1.608;2022-11-20T14:40:35;21.40;60.40
49379;DHT22;35254;47.990;-1.608;2022-11-20T14:43:04;21.40;60.40
49379;DHT22;35254;47.990;-1.608;2022-11-20T14:45:41;21.40;60.20
49379;DHT22;35254;47.990;-1.608;2022-11-20T14:48:09;21.40;59.80
49379;DHT22;35254;47.990;-1.608;2022-11-20T14:50:37;21.40;59.40
49379;DHT22;35254;47.990;-1.608;2022-11-20T14:53:03;21.40;59.40
49379;DHT22;35254;47.990;-1.608;2022-11-20T14:55:38;21.40;59.10
49379;DHT22;35254;47.990;-1.608;2022-11-20T14:58:21;21.40;58.20
49379;DHT22;35254;47.990;-1.608;2022-11-20T15:03:20;21.30;57.70
49379;DHT22;35254;47.990;-1.608;2022-11-20T15:05:49;21.30;57.30
49379;DHT22;35254;47.990;-1.608;2022-11-20T15:08:16;21.30;57.60
49379;DHT22;35254;47.990;-1.608;2022-11-20T15:10:49;21.20;57.50
49379;DHT22;35254;47.990;-1.608;2022-11-20T15:13:22;21.20;57.50
49379;DHT22;35254;47.990;-1.608;2022-11-20T15:15:54;21.20;57.10
49379;DHT22;35254;47.990;-1.608;2022-11-20T15:18:38;21.20;56.90
49379;DHT22;35254;47.990;-1.608;2022-11-20T15:21:10;21.20;56.50
49379;DHT22;35254;47.990;-1.608;2022-11-20T15:23:36;21.20;55.90
49379;DHT22;35254;47.990;-1.608;2022-11-20T15:26:04;21.20;56.20
49379;DHT22;35254;47.990;-1.608;2022-11-20T15:28:36;21.20;56.50
49379;DHT22;35254;47.990;-1.608;2022-11-20T15:31:05;21.20;56.50
49379;DHT22;35254;47.990;-1.608;2022-11-20T15:33:32;21.20;56.50
49379;DHT22;35254;47.990;-1.608;2022-11-20T15:35:58;21.20;56.50
49379;DHT22;35254;47.990;-1.608;2022-11-20T15:38:23;21.20;56.40
49379;DHT22;35254;47.990;-1.608;2022-11-20T15:40:49;21.20;56.40
49379;DHT22;35254;47.990;-1.608;2022-11-20T15:43:15;21.20;56.20
49379;DHT22;35254;47.990;-1.608;2022-11-20T15:45:50;21.20;56.00
49379;DHT22;35254;47.990;-1.608;2022-11-20T15:48:32;21.20;56.00
49379;DHT22;35254;47.990;-1.608;2022-11-20T15:53:34;21.20;55.90
49379;DHT22;35254;47.990;-1.608;2022-11-20T15:56:00;21.20;55.80
49379;DHT22;35254;47.990;-1.608;2022-11-20T15:58:26;21.20;55.80
49379;DHT22;35254;47.990;-1.608;2022-11-20T16:00:52;21.20;55.90
49379;DHT22;35254;47.990;-1.608;2022-11-20T16:03:18;21.20;55.90
49379;DHT22;35254;47.990;-1.608;2022-11-20T16:05:44;21.20;55.80
49379;DHT22;35254;47.990;-1.608;2022-11-20T16:08:10;21.20;55.80
49379;DHT22;35254;47.990;-1.608;2022-11-20T16:10:36;21.10;55.80
49379;DHT22;35254;47.990;-1.608;2022-11-20T16:13:02;21.20;55.70
49379;DHT22;35254;47.990;-1.608;2022-11-20T16:15:52;21.20;55.70
49379;DHT22;35254;47.990;-1.608;2022-11-20T16:18:20;21.20;55.70
49379;DHT22;35254;47.990;-1.608;2022-11-20T16:20:50;21.20;55.50
49379;DHT22;35254;47.990;-1.608;2022-11-20T16:23:16;21.10;55.60
49379;DHT22;35254;47.990;-1.608;2022-11-20T16:25:43;21.10;55.60
49379;DHT22;35254;47.990;-1.608;2022-11-20T16:28:09;21.10;55.60
49379;DHT22;35254;47.990;-1.608;2022-11-20T16:30:34;21.10;55.60
49379;DHT22;35254;47.990;-1.608;2022-11-20T16:33:01;21.10;55.50
49379;DHT22;35254;47.990;-1.608;2022-11-20T16:35:28;21.00;55.40
49379;DHT22;35254;47.990;-1.608;2022-11-20T16:37:55;21.10;55.40
49379;DHT22;35254;47.990;-1.608;2022-11-20T16:40:21;21.00;55.20
49379;DHT22;35254;47.990;-1.608;2022-11-20T16:42:46;21.00;55.20
49379;DHT22;35254;47.990;-1.608;2022-11-20T16:45:12;21.00;55.40
49379;DHT22;35254;47.990;-1.608;2022-11-20T16:47:38;21.00;55.30
49379;DHT22;35254;47.990;-1.608;2022-11-20T16:50:04;21.00;55.20
49379;DHT22;35254;47.990;-1.608;2022-11-20T16:52:30;21.00;55.30
49379;DHT22;35254;47.990;-1.608;2022-11-20T16:54:56;21.00;55.70
49379;DHT22;35254;47.990;-1.608;2022-11-20T16:57:22;20.90;55.20
49379;DHT22;35254;47.990;-1.608;2022-11-20T16:59:48;20.90;55.50
49379;DHT22;35254;47.990;-1.608;2022-11-20T17:02:14;21.00;55.30
49379;DHT22;35254;47.990;-1.608;2022-11-20T17:04:40;20.90;55.30
49379;DHT22;35254;47.990;-1.608;2022-11-20T17:07:06;20.90;55.10
49379;DHT22;35254;47.990;-1.608;2022-11-20T17:09:33;21.00;55.00
49379;DHT22;35254;47.990;-1.608;2022-11-20T17:11:59;21.00;54.70
49379;DHT22;35254;47.990;-1.608;2022-11-20T17:14:24;21.00;55.10
49379;DHT22;35254;47.990;-1.608;2022-11-20T17:16:50;21.00;54.90
49379;DHT22;35254;47.990;-1.608;2022-11-20T17:19:16;21.00;55.20
49379;DHT22;35254;47.990;-1.608;2022-11-20T17:21:41;21.00;55.00
49379;DHT22;35254;47.990;-1.608;2022-11-20T17:24:10;21.00;55.20
49379;DHT22;35254;47.990;-1.608;2022-11-20T17:26:38;21.00;55.00
49379;DHT22;35254;47.990;-1.608;2022-11-20T17:29:09;21.00;55.30
49379;DHT22;35254;47.990;-1.608;2022-11-20T17:31:36;21.00;55.00
49379;DHT22;35254;47.990;-1.608;2022-11-20T17:34:07;21.00;55.00
49379;DHT22;35254;47.990;-1.608;2022-11-20T17:36:35;21.00;55.00